Time,TemperatureF,DewpointF,PressureIn,WindDirection,WindDirectionDegrees,WindSpeedMPH,WindSpeedGustMPH,Humidity,HourlyPrecipIn,Conditions,Clouds,dailyrainin,SoftwareType,DateUTC
2013-02-06 00:03:00,19.7,12.4,30.12,North,352,0.0,0.0,73,0.00,,,0.00,Wunderground v.1.15,2013-02-06 06:03:00,
2013-02-06 00:09:00,18.9,11.7,30.12,North,352,0.0,0.0,73,0.00,,,0.00,Wunderground v.1.15,2013-02-06 06:09:00,
2013-02-06 00:15:00,18.4,10.9,30.13,North,352,0.0,0.0,72,0.00,,,0.00,Wunderground v.1.15,2013-02-06 06:15:00,
2013-02-06 00:20:00,18.0,10.5,30.13,North,352,0.0,0.0,72,0.00,,,0.00,Wunderground v.1.15,2013-02-06 06:20:00,
2013-02-06 00:25:00,17.3,9.8,30.13,North,352,0.0,0.0,72,0.00,,,0.00,Wunderground v.1.15,2013-02-06 06:25:00,
2013-02-06 00:30:00,16.5,8.7,30.13,North,352,0.0,0.0,71,0.00,,,0.00,Wunderground v.1.15,2013-02-06 06:30:00,
2013-02-06 00:36:00,16.1,8.7,30.13,North,352,0.0,0.0,72,0.00,,,0.00,Wunderground v.1.15,2013-02-06 06:36:00,
2013-02-06 00:42:00,15.7,8.3,30.13,North,352,0.0,0.0,72,0.00,,,0.00,Wunderground v.1.15,2013-02-06 06:42:00,
2013-02-06 00:47:00,15.2,7.8,30.13,North,352,0.0,0.0,72,0.00,,,0.00,Wunderground v.1.15,2013-02-06 06:47:00,
2013-02-06 00:53:00,14.6,6.9,30.13,North,352,0.0,0.0,71,0.00,,,0.00,Wunderground v.1.15,2013-02-06 06:53:00,
2013-02-06 00:59:00,14.1,6.7,30.14,North,352,0.0,0.0,72,0.00,,,0.00,Wunderground v.1.15,2013-02-06 06:59:00,
2013-02-06 01:04:00,13.8,6.4,30.14,North,352,0.0,0.0,72,0.00,,,0.00,Wunderground v.1.15,2013-02-06 07:04:00,
2013-02-06 01:10:00,13.5,6.1,30.14,North,352,0.0,0.0,72,0.00,,,0.00,Wunderground v.1.15,2013-02-06 07:10:00,
2013-02-06 01:16:00,12.9,5.6,30.14,North,352,0.0,0.0,72,0.00,,,0.00,Wunderground v.1.15,2013-02-06 07:16:00,
2013-02-06 01:21:00,12.6,5.3,30.14,North,352,0.0,0.0,72,0.00,,,0.00,Wunderground v.1.15,2013-02-06 07:21:00,
2013-02-06 01:27:00,12.3,5.0,30.14,North,352,0.0,0.0,72,0.00,,,0.00,Wunderground v.1.15,2013-02-06 07:27:00,
2013-02-06 01:32:00,11.9,4.6,30.14,North,352,0.0,0.0,72,0.00,,,0.00,Wunderground v.1.15,2013-02-06 07:32:00,
2013-02-06 01:37:00,11.6,4.3,30.14,North,352,0.0,0.0,72,0.00,,,0.00,Wunderground v.1.15,2013-02-06 07:37:00,
2013-02-06 01:43:00,11.2,3.9,30.14,North,352,0.0,0.0,72,0.00,,,0.00,Wunderground v.1.15,2013-02-06 07:43:00,
2013-02-06 01:48:00,10.9,3.6,30.16,North,352,0.0,0.0,72,0.00,,,0.00,Wunderground v.1.15,2013-02-06 07:48:00,
2013-02-06 01:54:00,10.5,3.3,30.16,North,352,0.0,0.0,72,0.00,,,0.00,Wunderground v.1.15,2013-02-06 07:54:00,
2013-02-06 02:00:00,10.2,3.3,30.16,North,352,0.0,0.0,73,0.00,,,0.00,Wunderground v.1.15,2013-02-06 08:00:00,
2013-02-06 02:06:00,10.0,3.1,30.16,North,352,0.0,0.0,73,0.00,,,0.00,Wunderground v.1.15,2013-02-06 08:06:00,
2013-02-06 02:11:00,9.9,3.0,30.16,North,352,0.0,0.0,73,0.00,,,0.00,Wunderground v.1.15,2013-02-06 08:11:00,
2013-02-06 02:16:00,9.5,2.6,30.15,North,352,0.0,0.0,73,0.00,,,0.00,Wunderground v.1.15,2013-02-06 08:16:00,
2013-02-06 02:22:00,9.3,2.7,30.15,North,352,0.0,0.0,74,0.00,,,0.00,Wunderground v.1.15,2013-02-06 08:22:00,
2013-02-06 02:27:00,9.2,2.6,30.15,North,352,0.0,0.0,74,0.00,,,0.00,Wunderground v.1.15,2013-02-06 08:27:00,
2013-02-06 02:33:00,9.0,2.4,30.16,North,352,0.0,0.0,74,0.00,,,0.00,Wunderground v.1.15,2013-02-06 08:33:00,
2013-02-06 02:38:00,8.8,2.2,30.16,North,352,0.0,0.0,74,0.00,,,0.00,Wunderground v.1.15,2013-02-06 08:38:00,
2013-02-06 02:44:00,8.6,2.0,30.16,North,352,0.0,0.0,74,0.00,,,0.00,Wunderground v.1.15,2013-02-06 08:44:00,
2013-02-06 02:50:00,8.4,2.1,30.16,North,352,0.0,0.0,75,0.00,,,0.00,Wunderground v.1.15,2013-02-06 08:50:00,
2013-02-06 02:55:00,8.4,2.1,30.16,North,352,0.0,0.0,75,0.00,,,0.00,Wunderground v.1.15,2013-02-06 08:55:00,
2013-02-06 03:00:00,8.3,2.0,30.17,North,352,0.0,0.0,75,0.00,,,0.00,Wunderground v.1.15,2013-02-06 09:00:00,
2013-02-06 03:06:00,8.1,1.8,30.17,North,352,0.0,0.0,75,0.00,,,0.00,Wunderground v.1.15,2013-02-06 09:06:00,
2013-02-06 03:11:00,7.9,1.6,30.17,North,352,0.0,0.0,75,0.00,,,0.00,Wunderground v.1.15,2013-02-06 09:11:00,
2013-02-06 03:16:00,7.7,1.4,30.17,North,352,0.0,0.0,75,0.00,,,0.00,Wunderground v.1.15,2013-02-06 09:16:00,
2013-02-06 03:22:00,7.6,1.3,30.17,North,352,0.0,0.0,75,0.00,,,0.00,Wunderground v.1.15,2013-02-06 09:22:00,
2013-02-06 03:27:00,7.4,1.1,30.17,North,352,0.0,0.0,75,0.00,,,0.00,Wunderground v.1.15,2013-02-06 09:27:00,
2013-02-06 03:33:00,7.2,0.9,30.17,North,352,0.0,0.0,75,0.00,,,0.00,Wunderground v.1.15,2013-02-06 09:33:00,
2013-02-06 03:38:00,7.0,0.7,30.17,North,352,0.0,0.0,75,0.00,,,0.00,Wunderground v.1.15,2013-02-06 09:38:00,
2013-02-06 03:44:00,6.7,0.5,30.18,North,352,0.0,0.0,75,0.00,,,0.00,Wunderground v.1.15,2013-02-06 09:44:00,
2013-02-06 03:50:00,6.5,0.3,30.18,North,352,0.0,0.0,75,0.00,,,0.00,Wunderground v.1.15,2013-02-06 09:50:00,
2013-02-06 03:55:00,6.3,0.1,30.18,North,352,0.0,0.0,75,0.00,,,0.00,Wunderground v.1.15,2013-02-06 09:55:00,
2013-02-06 04:01:00,6.0,-0.2,30.17,North,352,0.0,0.0,75,0.00,,,0.00,Wunderground v.1.15,2013-02-06 10:01:00,
2013-02-06 04:07:00,5.8,-0.4,30.17,North,352,0.0,0.0,75,0.00,,,0.00,Wunderground v.1.15,2013-02-06 10:07:00,
2013-02-06 04:13:00,5.6,-0.6,30.17,North,352,0.0,0.0,75,0.00,,,0.00,Wunderground v.1.15,2013-02-06 10:13:00,
2013-02-06 04:18:00,5.4,-0.8,30.16,North,352,0.0,0.0,75,0.00,,,0.00,Wunderground v.1.15,2013-02-06 10:18:00,
2013-02-06 04:24:00,5.4,-0.5,30.16,North,352,0.0,0.0,76,0.00,,,0.00,Wunderground v.1.15,2013-02-06 10:24:00,
2013-02-06 04:29:00,5.2,-1.0,30.17,North,352,0.0,0.0,75,0.00,,,0.00,Wunderground v.1.15,2013-02-06 10:29:00,
2013-02-06 04:35:00,5.0,-0.9,30.17,North,352,0.0,0.0,76,0.00,,,0.00,Wunderground v.1.15,2013-02-06 10:35:00,
2013-02-06 04:40:00,5.0,-0.9,30.17,North,352,0.0,0.0,76,0.00,,,0.00,Wunderground v.1.15,2013-02-06 10:40:00,
2013-02-06 04:46:00,4.8,-1.1,30.17,North,352,0.0,0.0,76,0.00,,,0.00,Wunderground v.1.15,2013-02-06 10:46:00,
2013-02-06 04:51:00,4.8,-1.1,30.17,North,352,0.0,0.0,76,0.00,,,0.00,Wunderground v.1.15,2013-02-06 10:51:00,
2013-02-06 04:57:00,4.7,-1.2,30.17,North,352,0.0,0.0,76,0.00,,,0.00,Wunderground v.1.15,2013-02-06 10:57:00,
2013-02-06 05:03:00,4.7,-0.9,30.18,North,352,0.0,0.0,77,0.00,,,0.00,Wunderground v.1.15,2013-02-06 11:03:00,
2013-02-06 05:09:00,4.7,-0.9,30.18,North,352,0.0,0.0,77,0.00,,,0.00,Wunderground v.1.15,2013-02-06 11:09:00,
2013-02-06 05:15:00,4.5,-1.1,30.19,North,352,0.0,0.0,77,0.00,,,0.00,Wunderground v.1.15,2013-02-06 11:15:00,
2013-02-06 05:20:00,4.5,-1.1,30.19,North,352,0.0,0.0,77,0.00,,,0.00,Wunderground v.1.15,2013-02-06 11:20:00,
2013-02-06 05:25:00,4.5,-1.1,30.19,North,352,0.0,0.0,77,0.00,,,0.00,Wunderground v.1.15,2013-02-06 11:25:00,
2013-02-06 05:30:00,4.5,-1.1,30.19,North,352,0.0,0.0,77,0.00,,,0.00,Wunderground v.1.15,2013-02-06 11:30:00,
2013-02-06 05:36:00,4.5,-1.1,30.19,North,352,0.0,0.0,77,0.00,,,0.00,Wunderground v.1.15,2013-02-06 11:36:00,
2013-02-06 05:42:00,4.3,-1.0,30.19,North,352,0.0,0.0,78,0.00,,,0.00,Wunderground v.1.15,2013-02-06 11:42:00,
2013-02-06 05:47:00,4.3,-1.0,30.18,North,352,0.0,0.0,78,0.00,,,0.00,Wunderground v.1.15,2013-02-06 11:47:00,
2013-02-06 05:53:00,4.3,-1.0,30.18,North,352,0.0,0.0,78,0.00,,,0.00,Wunderground v.1.15,2013-02-06 11:53:00,
2013-02-06 05:59:00,4.1,-1.2,30.18,North,352,0.0,0.0,78,0.00,,,0.00,Wunderground v.1.15,2013-02-06 11:59:00,
2013-02-06 06:04:00,3.9,-1.4,30.18,North,352,0.0,0.0,78,0.00,,,0.00,Wunderground v.1.15,2013-02-06 12:04:00,
2013-02-06 06:09:00,3.9,-1.4,30.18,North,352,0.0,0.0,78,0.00,,,0.00,Wunderground v.1.15,2013-02-06 12:09:00,
2013-02-06 06:14:00,3.7,-1.6,30.18,North,352,0.0,0.0,78,0.00,,,0.00,Wunderground v.1.15,2013-02-06 12:14:00,
2013-02-06 06:19:00,3.5,-1.8,30.18,North,352,0.0,0.0,78,0.00,,,0.00,Wunderground v.1.15,2013-02-06 12:19:00,
2013-02-06 06:25:00,3.5,-1.8,30.18,North,352,0.0,0.0,78,0.00,,,0.00,Wunderground v.1.15,2013-02-06 12:25:00,
2013-02-06 06:31:00,3.4,-1.9,30.18,North,352,0.0,0.0,78,0.00,,,0.00,Wunderground v.1.15,2013-02-06 12:31:00,
2013-02-06 06:37:00,3.2,-2.1,30.18,North,352,0.0,0.0,78,0.00,,,0.00,Wunderground v.1.15,2013-02-06 12:37:00,
2013-02-06 06:43:00,3.2,-2.1,30.18,North,352,0.0,0.0,78,0.00,,,0.00,Wunderground v.1.15,2013-02-06 12:43:00,
2013-02-06 06:48:00,3.0,-2.3,30.19,North,352,0.0,0.0,78,0.00,,,0.00,Wunderground v.1.15,2013-02-06 12:48:00,
2013-02-06 06:54:00,3.0,-2.3,30.19,North,352,0.0,0.0,78,0.00,,,0.00,Wunderground v.1.15,2013-02-06 12:54:00,
2013-02-06 06:59:00,2.8,-2.5,30.20,North,352,0.0,0.0,78,0.00,,,0.00,Wunderground v.1.15,2013-02-06 12:59:00,
2013-02-06 07:04:00,2.8,-2.5,30.20,North,352,0.0,0.0,78,0.00,,,0.00,Wunderground v.1.15,2013-02-06 13:04:00,
2013-02-06 07:10:00,2.8,-2.5,30.20,North,352,0.0,0.0,78,0.00,,,0.00,Wunderground v.1.15,2013-02-06 13:10:00,
2013-02-06 07:16:00,2.6,-2.7,30.21,North,352,0.0,0.0,78,0.00,,,0.00,Wunderground v.1.15,2013-02-06 13:16:00,
2013-02-06 07:22:00,2.8,-2.5,30.21,North,352,0.0,0.0,78,0.00,,,0.00,Wunderground v.1.15,2013-02-06 13:22:00,
2013-02-06 07:27:00,2.8,-2.5,30.21,North,352,0.0,0.0,78,0.00,,,0.00,Wunderground v.1.15,2013-02-06 13:27:00,
2013-02-06 07:32:00,3.0,-2.0,30.22,North,352,0.0,0.0,79,0.00,,,0.00,Wunderground v.1.15,2013-02-06 13:32:00,
2013-02-06 07:38:00,3.0,-2.0,30.22,North,352,0.0,0.0,79,0.00,,,0.00,Wunderground v.1.15,2013-02-06 13:38:00,
2013-02-06 07:44:00,3.4,-1.7,30.22,North,352,0.0,0.0,79,0.00,,,0.00,Wunderground v.1.15,2013-02-06 13:44:00,
2013-02-06 07:49:00,3.4,-1.7,30.22,North,352,0.0,0.0,79,0.00,,,0.00,Wunderground v.1.15,2013-02-06 13:49:00,
2013-02-06 07:54:00,3.5,-1.3,30.22,North,352,0.0,0.0,80,0.00,,,0.00,Wunderground v.1.15,2013-02-06 13:54:00,
2013-02-06 07:59:00,3.9,-0.9,30.23,North,352,0.0,0.0,80,0.00,,,0.00,Wunderground v.1.15,2013-02-06 13:59:00,
2013-02-06 08:04:00,4.1,-0.7,30.23,North,352,0.0,0.0,80,0.00,,,0.00,Wunderground v.1.15,2013-02-06 14:04:00,
2013-02-06 08:10:00,4.5,0.0,30.23,North,352,0.0,0.0,81,0.00,,,0.00,Wunderground v.1.15,2013-02-06 14:10:00,
2013-02-06 08:16:00,5.0,0.4,30.23,North,352,0.0,0.0,81,0.00,,,0.00,Wunderground v.1.15,2013-02-06 14:16:00,
2013-02-06 08:22:00,5.8,1.5,30.23,North,352,0.0,0.0,82,0.00,,,0.00,Wunderground v.1.15,2013-02-06 14:22:00,
2013-02-06 08:27:00,6.7,2.6,30.23,North,352,0.0,0.0,83,0.00,,,0.00,Wunderground v.1.15,2013-02-06 14:27:00,
2013-02-06 08:33:00,7.4,3.6,30.23,North,352,0.0,0.0,84,0.00,,,0.00,Wunderground v.1.15,2013-02-06 14:33:00,
2013-02-06 08:38:00,8.3,4.5,30.23,SSE,152,0.0,5.0,84,0.00,,,0.00,Wunderground v.1.15,2013-02-06 14:38:00,
2013-02-06 08:44:00,9.3,5.7,30.21,SE,140,0.0,0.0,85,0.00,,,0.00,Wunderground v.1.15,2013-02-06 14:44:00,
2013-02-06 08:49:00,10.4,6.8,30.21,SE,138,0.0,0.0,85,0.00,,,0.00,Wunderground v.1.15,2013-02-06 14:49:00,
2013-02-06 08:55:00,11.6,8.2,30.21,SSE,161,0.0,2.0,86,0.00,,,0.00,Wunderground v.1.15,2013-02-06 14:55:00,
2013-02-06 09:00:00,12.6,9.2,30.20,SE,137,1.0,1.0,86,0.00,,,0.00,Wunderground v.1.15,2013-02-06 15:00:00,
2013-02-06 09:05:00,13.3,9.9,30.20,SSE,151,0.0,1.0,86,0.00,,,0.00,Wunderground v.1.15,2013-02-06 15:05:00,
2013-02-06 09:10:00,14.0,10.6,30.20,SE,143,0.0,0.0,86,0.00,,,0.00,Wunderground v.1.15,2013-02-06 15:10:00,
2013-02-06 09:16:00,14.6,11.2,30.21,SE,130,0.0,2.0,86,0.00,,,0.00,Wunderground v.1.15,2013-02-06 15:16:00,
2013-02-06 09:22:00,15.4,12.0,30.21,SSE,164,1.0,2.0,86,0.00,,,0.00,Wunderground v.1.15,2013-02-06 15:22:00,
2013-02-06 09:28:00,16.2,12.7,30.21,South,189,1.0,2.0,86,0.00,,,0.00,Wunderground v.1.15,2013-02-06 15:28:00,
2013-02-06 09:33:00,16.7,13.2,30.22,South,188,1.0,2.0,86,0.00,,,0.00,Wunderground v.1.15,2013-02-06 15:33:00,
2013-02-06 09:39:00,17.2,13.7,30.22,SW,220,1.0,2.0,86,0.00,,,0.00,Wunderground v.1.15,2013-02-06 15:39:00,
2013-02-06 09:44:00,17.5,14.0,30.23,South,175,0.0,2.0,86,0.00,,,0.00,Wunderground v.1.15,2013-02-06 15:44:00,
2013-02-06 09:49:00,17.7,14.2,30.23,South,169,0.0,2.0,86,0.00,,,0.00,Wunderground v.1.15,2013-02-06 15:49:00,
2013-02-06 09:54:00,18.0,14.5,30.23,South,169,0.0,0.0,86,0.00,,,0.00,Wunderground v.1.15,2013-02-06 15:54:00,
2013-02-06 10:00:00,18.4,14.9,30.23,SW,216,0.0,2.0,86,0.00,,,0.00,Wunderground v.1.15,2013-02-06 16:00:00,
2013-02-06 10:05:00,18.9,15.4,30.23,SE,140,0.0,3.0,86,0.00,,,0.00,Wunderground v.1.15,2013-02-06 16:05:00,
2013-02-06 10:10:00,19.2,15.7,30.23,SE,134,1.0,1.0,86,0.00,,,0.00,Wunderground v.1.15,2013-02-06 16:10:00,
2013-02-06 10:15:00,19.9,16.1,30.21,ESE,106,2.0,4.0,85,0.00,,,0.00,Wunderground v.1.15,2013-02-06 16:15:00,
2013-02-06 10:21:00,20.6,16.8,30.21,SE,131,2.0,4.0,85,0.00,,,0.00,Wunderground v.1.15,2013-02-06 16:21:00,
2013-02-06 10:26:00,21.4,17.3,30.21,SSE,167,2.0,4.0,84,0.00,,,0.00,Wunderground v.1.15,2013-02-06 16:26:00,
2013-02-06 10:32:00,22.5,17.8,30.20,ESE,116,0.0,6.0,82,0.00,,,0.00,Wunderground v.1.15,2013-02-06 16:32:00,
2013-02-06 10:38:00,23.6,18.6,30.20,South,179,0.0,6.0,81,0.00,,,0.00,Wunderground v.1.15,2013-02-06 16:38:00,
2013-02-06 10:43:00,24.5,18.9,30.21,South,184,0.0,3.0,79,0.00,,,0.00,Wunderground v.1.15,2013-02-06 16:43:00,
2013-02-06 10:49:00,25.1,18.9,30.21,SE,136,1.0,7.0,77,0.00,,,0.00,Wunderground v.1.15,2013-02-06 16:49:00,
2013-02-06 10:54:00,25.6,18.5,30.21,ESE,102,1.0,1.0,74,0.00,,,0.00,Wunderground v.1.15,2013-02-06 16:54:00,
2013-02-06 10:59:00,26.3,17.8,30.21,SE,131,1.0,6.0,70,0.00,,,0.00,Wunderground v.1.15,2013-02-06 16:59:00,
2013-02-06 11:05:00,26.4,16.9,30.21,SE,136,1.0,1.0,67,0.00,,,0.00,Wunderground v.1.15,2013-02-06 17:05:00,
2013-02-06 11:10:00,26.7,17.2,30.21,South,169,0.0,0.0,67,0.00,,,0.00,Wunderground v.1.15,2013-02-06 17:10:00,
2013-02-06 11:15:00,27.0,17.1,30.21,SE,136,1.0,2.0,66,0.00,,,0.00,Wunderground v.1.15,2013-02-06 17:15:00,
2013-02-06 11:21:00,27.2,17.3,30.21,SE,128,0.0,0.0,66,0.00,,,0.00,Wunderground v.1.15,2013-02-06 17:21:00,
2013-02-06 11:26:00,27.2,17.3,30.21,ESE,107,0.0,0.0,66,0.00,,,0.00,Wunderground v.1.15,2013-02-06 17:26:00,
2013-02-06 11:31:00,27.2,17.3,30.20,SSW,208,0.0,0.0,66,0.00,,,0.00,Wunderground v.1.15,2013-02-06 17:31:00,
2013-02-06 11:37:00,27.0,17.5,30.20,SSE,162,0.0,0.0,67,0.00,,,0.00,Wunderground v.1.15,2013-02-06 17:37:00,
2013-02-06 11:43:00,27.2,17.7,30.20,SSW,213,0.0,0.0,67,0.00,,,0.00,Wunderground v.1.15,2013-02-06 17:43:00,
2013-02-06 11:48:00,27.5,18.0,30.20,SSW,213,0.0,2.0,67,0.00,,,0.00,Wunderground v.1.15,2013-02-06 17:48:00,
2013-02-06 11:54:00,27.8,18.3,30.20,SW,215,0.0,1.0,67,0.00,,,0.00,Wunderground v.1.15,2013-02-06 17:54:00,
2013-02-06 12:00:00,28.1,18.2,30.19,SSW,198,0.0,0.0,66,0.00,,,0.00,Wunderground v.1.15,2013-02-06 18:00:00,
2013-02-06 12:06:00,28.2,18.3,30.19,South,174,1.0,2.0,66,0.00,,,0.00,Wunderground v.1.15,2013-02-06 18:06:00,
2013-02-06 12:11:00,28.1,17.8,30.19,SSW,210,1.0,1.0,65,0.00,,,0.00,Wunderground v.1.15,2013-02-06 18:11:00,
2013-02-06 12:18:00,27.9,17.6,30.20,South,176,1.0,5.0,65,0.00,,,0.00,Wunderground v.1.15,2013-02-06 18:18:00,
2013-02-06 12:23:00,28.1,18.2,30.20,South,181,1.0,1.0,66,0.00,,,0.00,Wunderground v.1.15,2013-02-06 18:23:00,
2013-02-06 12:29:00,28.2,18.3,30.19,SE,134,0.0,2.0,66,0.00,,,0.00,Wunderground v.1.15,2013-02-06 18:29:00,
2013-02-06 12:35:00,28.5,18.2,30.19,SSW,209,0.0,0.0,65,0.00,,,0.00,Wunderground v.1.15,2013-02-06 18:35:00,
2013-02-06 12:40:00,29.0,18.7,30.19,South,172,0.0,0.0,65,0.00,,,0.00,Wunderground v.1.15,2013-02-06 18:40:00,
2013-02-06 12:45:00,29.7,19.4,30.20,SSW,209,0.0,0.0,65,0.00,,,0.00,Wunderground v.1.15,2013-02-06 18:45:00,
2013-02-06 12:50:00,30.4,19.7,30.20,South,189,0.0,0.0,64,0.00,,,0.00,Wunderground v.1.15,2013-02-06 18:50:00,
2013-02-06 12:56:00,31.3,19.8,30.20,South,176,0.0,0.0,62,0.00,,,0.00,Wunderground v.1.15,2013-02-06 18:56:00,
2013-02-06 13:01:00,31.6,20.1,30.19,SE,131,0.0,1.0,62,0.00,,,0.00,Wunderground v.1.15,2013-02-06 19:01:00,
2013-02-06 13:07:00,31.9,20.0,30.19,SSE,147,0.0,1.0,61,0.00,,,0.00,Wunderground v.1.15,2013-02-06 19:07:00,
2013-02-06 13:12:00,32.2,20.2,30.19,SW,229,0.0,0.0,61,0.00,,,0.00,Wunderground v.1.15,2013-02-06 19:12:00,
2013-02-06 13:17:00,32.4,20.4,30.18,SE,126,0.0,0.0,61,0.00,,,0.00,Wunderground v.1.15,2013-02-06 19:17:00,
2013-02-06 13:23:00,32.4,20.0,30.18,SE,131,0.0,2.0,60,0.00,,,0.00,Wunderground v.1.15,2013-02-06 19:23:00,
2013-02-06 13:28:00,32.2,20.2,30.18,SE,137,0.0,2.0,61,0.00,,,0.00,Wunderground v.1.15,2013-02-06 19:28:00,
2013-02-06 13:33:00,32.4,20.8,30.18,SSE,164,0.0,0.0,62,0.00,,,0.00,Wunderground v.1.15,2013-02-06 19:33:00,
2013-02-06 13:38:00,32.5,20.9,30.18,SSW,198,0.0,0.0,62,0.00,,,0.00,Wunderground v.1.15,2013-02-06 19:38:00,
2013-02-06 13:43:00,32.5,20.9,30.18,South,179,1.0,5.0,62,0.00,,,0.00,Wunderground v.1.15,2013-02-06 19:43:00,
2013-02-06 13:49:00,32.4,21.6,30.18,SSW,210,1.0,5.0,64,0.00,,,0.00,Wunderground v.1.15,2013-02-06 19:49:00,
2013-02-06 13:55:00,31.9,21.1,30.18,SSE,151,1.0,2.0,64,0.00,,,0.00,Wunderground v.1.15,2013-02-06 19:55:00,
2013-02-06 14:00:00,31.8,21.0,30.17,SW,219,0.0,0.0,64,0.00,,,0.00,Wunderground v.1.15,2013-02-06 20:00:00,
2013-02-06 14:06:00,31.8,21.4,30.17,SW,215,0.0,0.0,65,0.00,,,0.00,Wunderground v.1.15,2013-02-06 20:06:00,
2013-02-06 14:11:00,31.8,21.4,30.17,SW,229,0.0,0.0,65,0.00,,,0.00,Wunderground v.1.15,2013-02-06 20:11:00,
2013-02-06 14:16:00,31.6,21.2,30.17,SE,124,0.0,3.0,65,0.00,,,0.00,Wunderground v.1.15,2013-02-06 20:16:00,
2013-02-06 14:22:00,31.5,20.7,30.17,SE,127,0.0,0.0,64,0.00,,,0.00,Wunderground v.1.15,2013-02-06 20:22:00,
2013-02-06 14:27:00,31.5,21.1,30.17,SE,136,0.0,0.0,65,0.00,,,0.00,Wunderground v.1.15,2013-02-06 20:27:00,
2013-02-06 14:33:00,31.3,20.9,30.17,SE,137,0.0,2.0,65,0.00,,,0.00,Wunderground v.1.15,2013-02-06 20:33:00,
2013-02-06 14:39:00,31.2,20.8,30.17,SSE,147,1.0,2.0,65,0.00,,,0.00,Wunderground v.1.15,2013-02-06 20:39:00,
2013-02-06 14:44:00,31.0,20.6,30.17,SE,136,1.0,1.0,65,0.00,,,0.00,Wunderground v.1.15,2013-02-06 20:44:00,
2013-02-06 14:49:00,30.9,20.9,30.17,SE,131,0.0,1.0,66,0.00,,,0.00,Wunderground v.1.15,2013-02-06 20:49:00,
2013-02-06 14:54:00,30.7,20.7,30.17,SSE,147,0.0,2.0,66,0.00,,,0.00,Wunderground v.1.15,2013-02-06 20:54:00,
2013-02-06 15:00:00,30.7,20.7,30.17,SE,143,0.0,0.0,66,0.00,,,0.00,Wunderground v.1.15,2013-02-06 21:00:00,
2013-02-06 15:06:00,30.7,21.0,30.17,South,191,0.0,0.0,67,0.00,,,0.00,Wunderground v.1.15,2013-02-06 21:06:00,
2013-02-06 15:11:00,30.7,21.4,30.17,SE,145,0.0,0.0,68,0.00,,,0.00,Wunderground v.1.15,2013-02-06 21:11:00,
2013-02-06 15:16:00,30.9,21.2,30.17,SE,133,0.0,0.0,67,0.00,,,0.00,Wunderground v.1.15,2013-02-06 21:16:00,
2013-02-06 15:22:00,31.0,21.3,30.17,South,184,0.0,0.0,67,0.00,,,0.00,Wunderground v.1.15,2013-02-06 21:22:00,
2013-02-06 15:28:00,31.0,21.3,30.17,ESE,119,0.0,3.0,67,0.00,,,0.00,Wunderground v.1.15,2013-02-06 21:28:00,
2013-02-06 15:33:00,31.3,22.0,30.17,SE,128,1.0,1.0,68,0.00,,,0.00,Wunderground v.1.15,2013-02-06 21:33:00,
2013-02-06 15:39:00,31.8,22.4,30.17,SE,140,0.0,2.0,68,0.00,,,0.00,Wunderground v.1.15,2013-02-06 21:39:00,
2013-02-06 15:44:00,32.1,22.4,30.16,SE,127,1.0,4.0,67,0.00,,,0.00,Wunderground v.1.15,2013-02-06 21:44:00,
2013-02-06 15:50:00,32.4,22.3,30.16,SE,136,2.0,2.0,66,0.00,,,0.00,Wunderground v.1.15,2013-02-06 21:50:00,
2013-02-06 15:55:00,32.4,22.3,30.16,SE,138,2.0,2.0,66,0.00,,,0.00,Wunderground v.1.15,2013-02-06 21:55:00,
2013-02-06 16:01:00,32.2,22.1,30.15,ESE,117,1.0,1.0,66,0.00,,,0.00,Wunderground v.1.15,2013-02-06 22:01:00,
2013-02-06 16:06:00,31.9,21.8,30.15,ESE,121,1.0,3.0,66,0.00,,,0.00,Wunderground v.1.15,2013-02-06 22:06:00,
2013-02-06 16:12:00,31.6,21.9,30.15,ESE,104,0.0,2.0,67,0.00,,,0.00,Wunderground v.1.15,2013-02-06 22:12:00,
2013-02-06 16:18:00,31.5,21.8,30.14,SE,137,0.0,5.0,67,0.00,,,0.00,Wunderground v.1.15,2013-02-06 22:18:00,
2013-02-06 16:23:00,31.3,21.6,30.14,SE,145,1.0,1.0,67,0.00,,,0.00,Wunderground v.1.15,2013-02-06 22:23:00,
2013-02-06 16:29:00,31.0,21.7,30.14,SE,138,0.0,1.0,68,0.00,,,0.00,Wunderground v.1.15,2013-02-06 22:29:00,
2013-02-06 16:34:00,30.9,21.6,30.14,SE,126,0.0,0.0,68,0.00,,,0.00,Wunderground v.1.15,2013-02-06 22:34:00,
2013-02-06 16:39:00,30.6,21.3,30.14,SE,126,0.0,0.0,68,0.00,,,0.00,Wunderground v.1.15,2013-02-06 22:39:00,
2013-02-06 16:44:00,30.4,21.4,30.15,SE,126,0.0,0.0,69,0.00,,,0.00,Wunderground v.1.15,2013-02-06 22:44:00,
2013-02-06 16:50:00,30.1,21.5,30.15,SE,126,0.0,0.0,70,0.00,,,0.00,Wunderground v.1.15,2013-02-06 22:50:00,
2013-02-06 16:55:00,29.8,21.2,30.15,SE,126,0.0,0.0,70,0.00,,,0.00,Wunderground v.1.15,2013-02-06 22:55:00,
2013-02-06 17:00:00,29.5,21.3,30.13,ESE,119,0.0,0.0,71,0.00,,,0.00,Wunderground v.1.15,2013-02-06 23:00:00,
2013-02-06 17:05:00,29.4,21.2,30.13,ESE,113,0.0,0.0,71,0.00,,,0.00,Wunderground v.1.15,2013-02-06 23:05:00,
2013-02-06 17:10:00,29.1,21.2,30.13,ESE,113,0.0,0.0,72,0.00,,,0.00,Wunderground v.1.15,2013-02-06 23:10:00,
2013-02-06 17:16:00,29.0,21.4,30.13,ESE,113,0.0,0.0,73,0.00,,,0.00,Wunderground v.1.15,2013-02-06 23:16:00,
2013-02-06 17:21:00,28.8,21.2,30.13,ESE,113,0.0,0.0,73,0.00,,,0.00,Wunderground v.1.15,2013-02-06 23:21:00,
2013-02-06 17:26:00,28.7,21.5,30.13,ESE,113,0.0,0.0,74,0.00,,,0.00,Wunderground v.1.15,2013-02-06 23:26:00,
2013-02-06 17:32:00,28.5,21.3,30.13,ESE,106,0.0,0.0,74,0.00,,,0.00,Wunderground v.1.15,2013-02-06 23:32:00,
2013-02-06 17:38:00,28.4,21.2,30.13,East,97,0.0,0.0,74,0.00,,,0.00,Wunderground v.1.15,2013-02-06 23:38:00,
2013-02-06 17:43:00,28.4,21.2,30.12,ESE,112,0.0,0.0,74,0.00,,,0.00,Wunderground v.1.15,2013-02-06 23:43:00,
2013-02-06 17:49:00,28.4,22.1,30.12,ESE,112,0.0,0.0,77,0.00,,,0.00,Wunderground v.1.15,2013-02-06 23:49:00,
2013-02-06 17:54:00,28.4,22.1,30.12,SSE,150,0.0,0.0,77,0.00,,,0.00,Wunderground v.1.15,2013-02-06 23:54:00,
2013-02-06 17:59:00,28.4,22.4,30.13,SSE,165,0.0,0.0,78,0.00,,,0.00,Wunderground v.1.15,2013-02-06 23:59:00,
2013-02-06 18:05:00,28.5,22.5,30.13,SSE,165,0.0,0.0,78,0.00,,,0.00,Wunderground v.1.15,2013-02-07 00:05:00,
2013-02-06 18:10:00,28.5,22.5,30.13,SSE,165,0.0,0.0,78,0.00,,,0.00,Wunderground v.1.15,2013-02-07 00:10:00,
2013-02-06 18:15:00,28.5,22.5,30.12,SSE,165,0.0,0.0,78,0.00,,,0.00,Wunderground v.1.15,2013-02-07 00:15:00,
2013-02-06 18:21:00,28.7,23.0,30.12,SSE,165,0.0,0.0,79,0.00,,,0.00,Wunderground v.1.15,2013-02-07 00:21:00,
2013-02-06 18:26:00,28.7,23.0,30.12,SSE,164,0.0,0.0,79,0.00,,,0.00,Wunderground v.1.15,2013-02-07 00:26:00,
2013-02-06 18:32:00,28.7,23.0,30.12,SSE,162,0.0,0.0,79,0.00,,,0.00,Wunderground v.1.15,2013-02-07 00:32:00,
2013-02-06 18:37:00,29.0,23.3,30.12,SSE,152,0.0,3.0,79,0.00,,,0.00,Wunderground v.1.15,2013-02-07 00:37:00,
2013-02-06 18:43:00,29.0,23.3,30.12,SSE,148,0.0,0.0,79,0.00,,,0.00,Wunderground v.1.15,2013-02-07 00:43:00,
2013-02-06 18:49:00,29.0,23.6,30.13,SSE,148,0.0,0.0,80,0.00,,,0.00,Wunderground v.1.15,2013-02-07 00:49:00,
2013-02-06 18:54:00,29.0,23.6,30.13,SSE,147,0.0,0.0,80,0.00,,,0.00,Wunderground v.1.15,2013-02-07 00:54:00,
2013-02-06 19:00:00,29.0,23.6,30.13,SSE,147,0.0,0.0,80,0.00,,,0.00,Wunderground v.1.15,2013-02-07 01:00:00,
2013-02-06 19:05:00,29.1,23.7,30.13,SSE,148,0.0,0.0,80,0.00,,,0.00,Wunderground v.1.15,2013-02-07 01:05:00,
2013-02-06 19:11:00,29.1,23.7,30.13,SSE,148,0.0,0.0,80,0.00,,,0.00,Wunderground v.1.15,2013-02-07 01:11:00,
2013-02-06 19:16:00,29.1,23.7,30.13,SSE,147,0.0,0.0,80,0.00,,,0.00,Wunderground v.1.15,2013-02-07 01:16:00,
2013-02-06 19:22:00,29.3,24.2,30.13,SSE,147,0.0,0.0,81,0.00,,,0.00,Wunderground v.1.15,2013-02-07 01:22:00,
2013-02-06 19:28:00,29.3,24.2,30.13,SSE,147,0.0,0.0,81,0.00,,,0.00,Wunderground v.1.15,2013-02-07 01:28:00,
2013-02-06 19:33:00,29.3,24.2,30.13,SSE,147,0.0,0.0,81,0.00,,,0.00,Wunderground v.1.15,2013-02-07 01:33:00,
2013-02-06 19:39:00,29.4,24.3,30.13,SSE,147,0.0,0.0,81,0.00,,,0.00,Wunderground v.1.15,2013-02-07 01:39:00,
2013-02-06 19:45:00,29.4,24.3,30.13,SSE,148,0.0,0.0,81,0.00,,,0.00,Wunderground v.1.15,2013-02-07 01:45:00,
2013-02-06 19:51:00,29.4,24.3,30.13,SE,144,0.0,0.0,81,0.00,,,0.00,Wunderground v.1.15,2013-02-07 01:51:00,
2013-02-06 19:56:00,29.4,24.3,30.13,SE,144,0.0,0.0,81,0.00,,,0.00,Wunderground v.1.15,2013-02-07 01:56:00,
2013-02-06 20:01:00,29.4,24.3,30.11,ESE,112,0.0,0.0,81,0.00,,,0.00,Wunderground v.1.15,2013-02-07 02:01:00,
2013-02-06 20:06:00,29.5,24.4,30.11,ESE,112,0.0,0.0,81,0.00,,,0.00,Wunderground v.1.15,2013-02-07 02:06:00,
2013-02-06 20:12:00,29.5,24.4,30.11,ESE,123,0.0,0.0,81,0.00,,,0.00,Wunderground v.1.15,2013-02-07 02:12:00,
2013-02-06 20:18:00,29.5,24.7,30.10,ESE,106,0.0,0.0,82,0.00,,,0.00,Wunderground v.1.15,2013-02-07 02:18:00,
2013-02-06 20:23:00,29.7,24.9,30.10,SE,134,0.0,0.0,82,0.00,,,0.00,Wunderground v.1.15,2013-02-07 02:23:00,
2013-02-06 20:28:00,29.7,24.9,30.10,East,100,0.0,0.0,82,0.00,,,0.00,Wunderground v.1.15,2013-02-07 02:28:00,
2013-02-06 20:33:00,29.8,25.3,30.09,East,100,0.0,0.0,83,0.00,,,0.00,Wunderground v.1.15,2013-02-07 02:33:00,
2013-02-06 20:39:00,30.0,25.5,30.09,ESE,114,0.0,0.0,83,0.00,,,0.00,Wunderground v.1.15,2013-02-07 02:39:00,
2013-02-06 20:44:00,30.1,25.6,30.08,ESE,103,0.0,4.0,83,0.00,,,0.00,Wunderground v.1.15,2013-02-07 02:44:00,
2013-02-06 20:50:00,30.4,25.9,30.08,ESE,112,1.0,1.0,83,0.00,,,0.00,Wunderground v.1.15,2013-02-07 02:50:00,
2013-02-06 20:55:00,30.6,26.1,30.08,East,93,2.0,2.0,83,0.00,,,0.00,Wunderground v.1.15,2013-02-07 02:55:00,
2013-02-06 21:01:00,30.7,26.1,30.07,SE,128,1.0,2.0,83,0.00,,,0.00,Wunderground v.1.15,2013-02-07 03:01:00,
2013-02-06 21:07:00,31.0,26.7,30.07,SE,145,2.0,5.0,84,0.00,,,0.00,Wunderground v.1.15,2013-02-07 03:07:00,
2013-02-06 21:13:00,31.2,26.9,30.07,SE,133,1.0,2.0,84,0.00,,,0.00,Wunderground v.1.15,2013-02-07 03:13:00,
2013-02-06 21:18:00,31.3,27.0,30.07,East,86,1.0,2.0,84,0.00,,,0.00,Wunderground v.1.15,2013-02-07 03:18:00,
2013-02-06 21:23:00,31.5,27.2,30.07,East,86,0.0,0.0,84,0.00,,,0.00,Wunderground v.1.15,2013-02-07 03:23:00,
2013-02-06 21:29:00,31.6,27.3,30.06,East,99,1.0,3.0,84,0.00,,,0.00,Wunderground v.1.15,2013-02-07 03:29:00,
2013-02-06 21:35:00,31.8,27.5,30.06,SE,138,1.0,1.0,84,0.00,,,0.00,Wunderground v.1.15,2013-02-07 03:35:00,
2013-02-06 21:40:00,31.8,27.5,30.06,SE,138,0.0,0.0,84,0.00,,,0.00,Wunderground v.1.15,2013-02-07 03:40:00,
2013-02-06 21:46:00,31.9,27.6,30.06,SE,134,0.0,0.0,84,0.00,,,0.00,Wunderground v.1.15,2013-02-07 03:46:00,
2013-02-06 21:52:00,32.1,27.8,30.06,SE,134,0.0,0.0,84,0.00,,,0.00,Wunderground v.1.15,2013-02-07 03:52:00,
2013-02-06 21:57:00,32.2,27.9,30.06,SSE,161,0.0,0.0,84,0.00,,,0.00,Wunderground v.1.15,2013-02-07 03:57:00,
2013-02-06 22:03:00,32.2,27.9,30.07,South,169,1.0,1.0,84,0.00,,,0.00,Wunderground v.1.15,2013-02-07 04:03:00,
2013-02-06 22:08:00,32.4,28.1,30.07,South,169,0.0,1.0,84,0.00,,,0.00,Wunderground v.1.15,2013-02-07 04:08:00,
2013-02-06 22:14:00,32.4,28.1,30.07,SE,130,0.0,3.0,84,0.00,,,0.00,Wunderground v.1.15,2013-02-07 04:14:00,
2013-02-06 22:19:00,32.5,28.2,30.07,SE,144,1.0,3.0,84,0.00,,,0.00,Wunderground v.1.15,2013-02-07 04:19:00,
2013-02-06 22:24:00,32.5,28.2,30.07,SSE,147,0.0,1.0,84,0.00,,,0.00,Wunderground v.1.15,2013-02-07 04:24:00,
2013-02-06 22:29:00,32.7,28.4,30.07,SE,134,0.0,1.0,84,0.00,,,0.00,Wunderground v.1.15,2013-02-07 04:29:00,
2013-02-06 22:35:00,32.7,28.4,30.07,SE,136,0.0,0.0,84,0.00,,,0.00,Wunderground v.1.15,2013-02-07 04:35:00,
2013-02-06 22:40:00,32.8,28.5,30.07,ESE,121,0.0,0.0,84,0.00,,,0.00,Wunderground v.1.15,2013-02-07 04:40:00,
2013-02-06 22:46:00,32.9,28.9,30.07,SE,144,0.0,1.0,85,0.00,,,0.00,Wunderground v.1.15,2013-02-07 04:46:00,
2013-02-06 22:52:00,33.1,29.1,30.07,SE,141,0.0,0.0,85,0.00,,,0.00,Wunderground v.1.15,2013-02-07 04:52:00,
2013-02-06 22:58:00,33.2,29.2,30.07,SE,143,0.0,2.0,85,0.00,,,0.00,Wunderground v.1.15,2013-02-07 04:58:00,
2013-02-06 23:01:00,33.2,29.2,30.06,SSE,148,1.0,1.0,85,0.00,,,0.00,Wunderground v.1.15,2013-02-07 05:01:00,
2013-02-06 23:02:00,33.2,29.2,30.06,SE,141,1.0,1.0,85,0.00,,,0.00,Wunderground v.1.15,2013-02-07 05:02:00,
2013-02-06 23:03:00,33.2,29.2,30.06,SE,137,1.0,2.0,85,0.00,,,0.00,Wunderground v.1.15,2013-02-07 05:03:00,
2013-02-06 23:09:00,33.4,29.1,30.06,ESE,119,1.0,5.0,84,0.00,,,0.00,Wunderground v.1.15,2013-02-07 05:09:00,
2013-02-06 23:14:00,33.5,29.5,30.05,South,176,0.0,2.0,85,0.00,,,0.00,Wunderground v.1.15,2013-02-07 05:14:00,
2013-02-06 23:20:00,33.5,29.5,30.05,SE,136,1.0,4.0,85,0.00,,,0.00,Wunderground v.1.15,2013-02-07 05:20:00,
2013-02-06 23:25:00,33.7,29.4,30.05,SSE,148,1.0,5.0,84,0.00,,,0.00,Wunderground v.1.15,2013-02-07 05:25:00,
2013-02-06 23:31:00,33.8,29.5,30.05,SE,134,1.0,1.0,84,0.00,,,0.00,Wunderground v.1.15,2013-02-07 05:31:00,
2013-02-06 23:36:00,33.8,29.5,30.05,SE,145,1.0,1.0,84,0.00,,,0.00,Wunderground v.1.15,2013-02-07 05:36:00,
2013-02-06 23:41:00,33.8,29.5,30.05,SSE,148,0.0,0.0,84,0.00,,,0.00,Wunderground v.1.15,2013-02-07 05:41:00,
2013-02-06 23:46:00,34.0,29.7,30.06,SSE,151,0.0,0.0,84,0.00,,,0.00,Wunderground v.1.15,2013-02-07 05:46:00,
2013-02-06 23:52:00,34.0,29.7,30.06,SE,134,0.0,0.0,84,0.00,,,0.00,Wunderground v.1.15,2013-02-07 05:52:00,
2013-02-06 23:57:00,34.0,29.7,30.06,SE,137,0.0,3.0,84,0.00,,,0.00,Wunderground v.1.15,2013-02-07 05:57:00,